createdAt,value
2022-08-27T00:02:22.066Z,20.30
2022-08-27T00:04:49.034Z,20.20
2022-08-27T00:07:15.873Z,20.20
2022-08-27T00:09:43.065Z,20.20
2022-08-27T00:12:10.247Z,20.20
2022-08-27T00:14:39.646Z,20.20
2022-08-27T00:17:06.945Z,20.20
2022-08-27T00:19:33.830Z,20.20
2022-08-27T00:22:00.619Z,20.20
2022-08-27T00:24:27.524Z,20.30
2022-08-27T00:26:54.299Z,20.30
2022-08-27T00:29:21.179Z,20.30
2022-08-27T00:31:51.966Z,20.30
2022-08-27T00:34:21.802Z,20.30
2022-08-27T00:36:48.770Z,20.30
2022-08-27T00:39:15.785Z,20.30
2022-08-27T00:41:43.447Z,20.30
2022-08-27T00:44:10.761Z,20.30
2022-08-27T00:46:48.816Z,20.30
2022-08-27T00:49:18.521Z,20.30
2022-08-27T00:51:50.330Z,20.30
2022-08-27T00:54:18.769Z,20.30
2022-08-27T00:56:51.671Z,20.30
2022-08-27T00:59:21.264Z,20.30
2022-08-27T01:02:06.839Z,20.30
2022-08-27T01:04:34.178Z,20.30
2022-08-27T01:07:01.387Z,20.30
2022-08-27T01:09:28.542Z,20.30
2022-08-27T01:11:56.200Z,20.40
2022-08-27T01:14:23.490Z,20.40
2022-08-27T01:16:51.866Z,20.40
2022-08-27T01:19:30.377Z,20.50
2022-08-27T01:21:59.930Z,20.50
2022-08-27T01:24:29.708Z,20.50
2022-08-27T01:26:58.020Z,20.50
2022-08-27T01:29:25.046Z,20.50
2022-08-27T01:31:51.935Z,20.60
2022-08-27T01:34:18.799Z,20.50
2022-08-27T01:36:45.545Z,20.50
2022-08-27T01:39:12.860Z,20.40
2022-08-27T01:41:39.778Z,20.40
2022-08-27T01:44:06.644Z,20.40
2022-08-27T01:46:33.478Z,20.30
2022-08-27T01:49:00.406Z,20.40
2022-08-27T01:51:27.217Z,20.40
2022-08-27T01:53:54.057Z,20.30
2022-08-27T01:56:20.918Z,20.30
2022-08-27T01:58:47.666Z,20.30
2022-08-27T02:01:16.978Z,20.30
2022-08-27T02:03:44.759Z,20.30
2022-08-27T02:06:12.383Z,20.30
2022-08-27T02:08:39.459Z,20.30
2022-08-27T02:11:08.285Z,20.30
2022-08-27T02:13:35.780Z,20.30
2022-08-27T02:16:02.767Z,20.30
2022-08-27T02:18:29.647Z,20.30
2022-08-27T02:20:56.400Z,20.30
2022-08-27T02:23:23.260Z,20.30
2022-08-27T02:25:51.066Z,20.30
2022-08-27T02:28:17.885Z,20.30
2022-08-27T02:30:44.716Z,20.40
2022-08-27T02:33:11.878Z,20.40
2022-08-27T02:35:43.942Z,20.40
2022-08-27T02:38:12.878Z,20.40
2022-08-27T02:40:39.997Z,20.40
2022-08-27T02:43:06.906Z,20.40
2022-08-27T02:45:33.787Z,20.40
2022-08-27T02:48:02.672Z,20.40
2022-08-27T02:50:30.215Z,20.40
2022-08-27T02:52:58.161Z,20.40
2022-08-27T02:55:25.008Z,20.40
2022-08-27T02:57:52.034Z,20.50
2022-08-27T03:00:19.298Z,20.50
2022-08-27T03:02:46.412Z,20.40
2022-08-27T03:05:13.846Z,20.50
2022-08-27T03:07:40.909Z,20.40
2022-08-27T03:10:08.378Z,20.50
2022-08-27T03:12:36.463Z,20.40
2022-08-27T03:15:04.983Z,20.40
2022-08-27T03:17:50.253Z,20.50
2022-08-27T03:20:17.132Z,20.50
2022-08-27T03:22:44.050Z,20.50
2022-08-27T03:25:11.300Z,20.50
2022-08-27T03:27:38.368Z,20.50
2022-08-27T03:30:06.513Z,20.50
2022-08-27T03:32:33.479Z,20.40
2022-08-27T03:35:00.271Z,20.30
2022-08-27T03:37:27.119Z,20.40
2022-08-27T03:39:54.252Z,20.30
2022-08-27T03:42:21.729Z,20.30
2022-08-27T03:44:48.913Z,20.30
2022-08-27T03:47:15.830Z,20.30
2022-08-27T03:49:42.595Z,20.30
2022-08-27T03:52:10.386Z,20.30
2022-08-27T03:54:38.360Z,20.30
2022-08-27T03:57:05.716Z,20.20
2022-08-27T03:59:33.373Z,20.30
2022-08-27T04:02:00.505Z,20.30
2022-08-27T04:04:28.123Z,20.30
2022-08-27T04:06:56.149Z,20.30
2022-08-27T04:09:26.058Z,20.30
2022-08-27T04:11:52.813Z,20.30
2022-08-27T04:14:26.306Z,20.30
2022-08-27T04:16:54.993Z,20.20
2022-08-27T04:19:26.951Z,20.30
2022-08-27T04:21:54.776Z,20.30
2022-08-27T04:24:21.604Z,20.20
2022-08-27T04:26:48.683Z,20.30
2022-08-27T04:29:15.960Z,20.30
2022-08-27T04:31:42.910Z,20.30
2022-08-27T04:34:09.752Z,20.30
2022-08-27T04:36:36.562Z,20.30
2022-08-27T04:39:03.446Z,20.30
2022-08-27T04:41:33.480Z,20.30
2022-08-27T04:44:04.675Z,20.30
2022-08-27T04:46:32.991Z,20.30
2022-08-27T04:49:01.624Z,20.20
2022-08-27T04:51:29.221Z,20.30
2022-08-27T04:53:56.537Z,20.20
2022-08-27T04:56:26.736Z,20.30
2022-08-27T04:58:53.681Z,20.30
2022-08-27T05:01:22.060Z,20.30
2022-08-27T05:03:49.012Z,20.30
2022-08-27T05:06:16.144Z,20.30
2022-08-27T05:08:42.977Z,20.30
2022-08-27T05:11:11.878Z,20.40
2022-08-27T05:13:38.970Z,20.30
2022-08-27T05:16:07.446Z,20.40
2022-08-27T05:18:45.622Z,20.40
2022-08-27T05:21:22.958Z,20.40
2022-08-27T05:23:50.098Z,20.40
2022-08-27T05:26:17.123Z,20.40
2022-08-27T05:28:44.279Z,20.40
2022-08-27T05:31:12.436Z,20.40
2022-08-27T05:33:39.890Z,20.40
2022-08-27T05:36:07.464Z,20.40
2022-08-27T05:38:34.437Z,20.50
2022-08-27T05:41:04.854Z,20.50
2022-08-27T05:43:32.348Z,20.50
2022-08-27T05:45:59.166Z,20.50
2022-08-27T05:48:26.131Z,20.50
2022-08-27T05:50:53.458Z,20.50
2022-08-27T05:53:20.441Z,20.60
2022-08-27T05:55:47.252Z,20.60
2022-08-27T05:58:34.348Z,20.60
2022-08-27T06:01:08.250Z,20.60
2022-08-27T06:03:37.981Z,20.60
2022-08-27T06:06:06.394Z,20.60
2022-08-27T06:08:33.389Z,20.70
2022-08-27T06:11:02.023Z,20.70
2022-08-27T06:13:29.697Z,20.70
2022-08-27T06:16:07.424Z,20.70
2022-08-27T06:18:35.170Z,20.80
2022-08-27T06:21:02.057Z,20.80
2022-08-27T06:23:29.234Z,20.80
2022-08-27T06:25:56.978Z,20.80
2022-08-27T06:28:25.466Z,20.70
2022-08-27T06:30:52.317Z,20.80
2022-08-27T06:33:21.226Z,20.80
2022-08-27T06:35:48.020Z,20.80
2022-08-27T06:38:14.842Z,20.90
2022-08-27T06:40:42.161Z,20.90
2022-08-27T06:43:09.020Z,20.90
2022-08-27T06:45:39.693Z,20.90
2022-08-27T06:48:06.511Z,20.90
2022-08-27T06:50:40.496Z,21.00
2022-08-27T06:53:07.410Z,21.00
2022-08-27T06:55:41.009Z,21.10
2022-08-27T06:58:08.019Z,21.10
2022-08-27T07:00:35.326Z,21.10
2022-08-27T07:03:05.245Z,21.20
2022-08-27T07:05:32.718Z,21.20
2022-08-27T07:07:59.935Z,21.20
2022-08-27T07:10:26.938Z,21.20
2022-08-27T07:12:53.784Z,21.20
2022-08-27T07:15:22.150Z,21.30
2022-08-27T07:17:52.148Z,21.30
2022-08-27T07:20:19.519Z,21.30
2022-08-27T07:22:46.650Z,21.30
2022-08-27T07:25:15.524Z,21.40
2022-08-27T07:27:42.309Z,21.30
2022-08-27T07:30:11.667Z,21.40
2022-08-27T07:32:38.579Z,21.40
2022-08-27T07:35:09.458Z,21.40
2022-08-27T07:37:36.786Z,21.40
2022-08-27T07:40:05.195Z,21.50
2022-08-27T07:42:50.723Z,21.50
2022-08-27T07:45:17.651Z,21.50
2022-08-27T07:47:44.451Z,21.50
2022-08-27T07:50:11.285Z,21.60
2022-08-27T07:52:38.129Z,21.60
2022-08-27T07:55:05.385Z,21.60
2022-08-27T07:57:32.393Z,21.70
2022-08-27T07:59:59.557Z,21.70
2022-08-27T08:02:27.750Z,21.80
2022-08-27T08:04:54.605Z,21.80
2022-08-27T08:07:21.941Z,21.80
2022-08-27T08:09:48.740Z,21.80
2022-08-27T08:12:15.627Z,21.90
2022-08-27T08:14:42.710Z,21.90
2022-08-27T08:17:10.428Z,21.90
2022-08-27T08:19:37.604Z,22.00
2022-08-27T08:22:05.984Z,22.00
2022-08-27T08:24:33.596Z,22.10
2022-08-27T08:27:06.822Z,22.10
2022-08-27T08:29:34.537Z,22.20
2022-08-27T08:32:01.336Z,22.20
2022-08-27T08:34:28.980Z,22.30
2022-08-27T08:36:55.758Z,22.30
2022-08-27T08:39:23.555Z,22.40
2022-08-27T08:41:57.616Z,22.40
2022-08-27T08:44:32.522Z,22.50
2022-08-27T08:47:05.145Z,22.50
2022-08-27T08:49:42.156Z,22.60
2022-08-27T08:52:30.433Z,22.60
2022-08-27T08:55:02.749Z,22.70
2022-08-27T08:57:36.273Z,22.80
2022-08-27T09:00:10.012Z,22.90
2022-08-27T09:02:36.835Z,22.90
2022-08-27T09:05:05.479Z,23.00
2022-08-27T09:07:38.702Z,23.10
2022-08-27T09:10:11.559Z,23.10
2022-08-27T09:12:38.355Z,23.20
2022-08-27T09:15:11.425Z,23.30
2022-08-27T09:17:40.330Z,23.30
2022-08-27T09:20:08.813Z,23.30
2022-08-27T09:22:50.462Z,23.40
2022-08-27T09:25:23.284Z,23.40
2022-08-27T09:27:54.865Z,23.50
2022-08-27T09:30:27.439Z,23.50
2022-08-27T09:32:58.582Z,23.60
2022-08-27T09:35:27.064Z,23.60
2022-08-27T09:37:54.794Z,23.70
2022-08-27T09:40:32.065Z,23.80
2022-08-27T09:43:18.176Z,23.80
2022-08-27T09:46:11.420Z,23.90
2022-08-27T09:48:38.310Z,23.90
2022-08-27T09:51:10.037Z,24.00
2022-08-27T09:53:45.396Z,24.00
2022-08-27T09:56:30.240Z,23.90
2022-08-27T09:59:16.234Z,23.90
2022-08-27T10:01:54.542Z,23.90
2022-08-27T10:04:27.569Z,23.90
2022-08-27T10:06:54.740Z,24.00
2022-08-27T10:09:33.354Z,23.90
2022-08-27T10:12:10.686Z,23.90
2022-08-27T10:14:50.195Z,23.90
2022-08-27T10:17:21.705Z,24.00
2022-08-27T10:20:00.372Z,24.10
2022-08-27T10:22:37.861Z,24.20
2022-08-27T10:25:23.678Z,24.30
2022-08-27T10:27:58.166Z,24.30
2022-08-27T10:30:51.498Z,24.40
2022-08-27T10:33:37.846Z,24.50
2022-08-27T10:36:16.887Z,24.60
2022-08-27T10:38:46.524Z,24.70
2022-08-27T10:41:17.833Z,24.70
2022-08-27T10:43:44.575Z,24.80
2022-08-27T10:46:23.786Z,24.80
2022-08-27T10:49:06.013Z,24.80
2022-08-27T10:51:43.474Z,24.80
2022-08-27T10:54:21.071Z,24.90
2022-08-27T10:57:26.286Z,24.80
2022-08-27T11:00:02.663Z,24.90
2022-08-27T11:02:47.089Z,24.90
2022-08-27T11:05:19.550Z,24.90
2022-08-27T11:07:49.765Z,24.90
2022-08-27T11:10:21.602Z,25.00
2022-08-27T11:12:50.424Z,25.10
2022-08-27T11:15:26.353Z,25.20
2022-08-27T11:17:55.931Z,25.20
2022-08-27T11:20:25.908Z,25.20
2022-08-27T11:22:58.021Z,25.20
2022-08-27T11:25:28.391Z,25.30
2022-08-27T11:27:56.577Z,25.30
2022-08-27T11:30:23.360Z,25.40
2022-08-27T11:33:28.768Z,25.40
2022-08-27T11:35:55.596Z,25.30
2022-08-27T11:38:34.324Z,25.30
2022-08-27T11:41:19.379Z,25.30
2022-08-27T11:43:47.292Z,25.30
2022-08-27T11:46:22.068Z,25.40
2022-08-27T11:48:59.592Z,25.30
2022-08-27T11:51:29.005Z,25.40
2022-08-27T11:53:57.335Z,25.40
2022-08-27T11:56:27.208Z,25.40
2022-08-27T11:58:54.007Z,25.30
2022-08-27T12:01:27.975Z,25.30
2022-08-27T12:04:02.281Z,25.30
2022-08-27T12:06:40.098Z,25.20
2022-08-27T12:09:14.583Z,25.20
2022-08-27T12:12:16.750Z,25.20
2022-08-27T12:14:48.327Z,25.20
2022-08-27T12:17:17.617Z,25.20
2022-08-27T12:20:19.949Z,25.10
2022-08-27T12:23:14.202Z,25.10
2022-08-27T12:25:41.241Z,25.10
2022-08-27T12:28:09.314Z,25.00
2022-08-27T12:30:37.962Z,25.10
2022-08-27T12:33:10.005Z,25.20
2022-08-27T12:35:42.942Z,25.20
2022-08-27T12:38:10.030Z,25.20
2022-08-27T12:40:48.149Z,25.30
2022-08-27T12:43:22.075Z,25.30
2022-08-27T12:45:51.212Z,25.30
2022-08-27T12:48:22.381Z,25.30
2022-08-27T12:50:59.838Z,25.20
2022-08-27T12:53:33.374Z,25.30
2022-08-27T12:56:13.284Z,25.30
2022-08-27T12:58:49.215Z,25.30
2022-08-27T13:01:34.902Z,25.30
2022-08-27T13:04:05.403Z,25.40
2022-08-27T13:06:34.477Z,25.40
2022-08-27T13:09:02.788Z,25.30
2022-08-27T13:11:31.333Z,25.30
2022-08-27T13:14:10.439Z,25.20
2022-08-27T13:16:39.897Z,25.20
2022-08-27T13:19:07.230Z,25.20
2022-08-27T13:21:34.319Z,25.20
2022-08-27T13:24:02.641Z,25.10
2022-08-27T13:26:34.069Z,25.10
2022-08-27T13:29:03.797Z,25.10
2022-08-27T13:31:31.905Z,25.10
2022-08-27T13:33:59.268Z,25.10
2022-08-27T13:36:29.106Z,25.10
2022-08-27T13:38:59.369Z,25.10
2022-08-27T13:41:31.759Z,25.00
2022-08-27T13:44:05.489Z,25.00
2022-08-27T13:46:32.696Z,25.00
2022-08-27T13:49:00.409Z,25.00
2022-08-27T13:51:30.900Z,25.00
2022-08-27T13:54:15.776Z,24.90
2022-08-27T13:56:42.561Z,24.80
2022-08-27T13:59:19.750Z,24.70
2022-08-27T14:01:57.445Z,24.60
2022-08-27T14:04:26.959Z,24.50
2022-08-27T14:06:54.018Z,24.30
2022-08-27T14:09:29.502Z,24.30
2022-08-27T14:12:05.181Z,24.30
2022-08-27T14:14:36.633Z,24.20
2022-08-27T14:17:04.598Z,24.00
2022-08-27T14:19:36.683Z,24.10
2022-08-27T14:22:04.020Z,24.00
2022-08-27T14:24:30.882Z,24.00
2022-08-27T14:27:04.220Z,24.00
2022-08-27T14:29:31.067Z,24.00
2022-08-27T14:31:57.941Z,24.00
2022-08-27T14:34:24.747Z,24.10
2022-08-27T14:36:54.761Z,24.00
2022-08-27T14:39:26.574Z,24.10
2022-08-27T14:41:54.569Z,24.10
2022-08-27T14:44:21.985Z,24.10
2022-08-27T14:46:49.118Z,24.00
2022-08-27T14:49:27.751Z,24.00
2022-08-27T14:51:54.596Z,23.90
2022-08-27T14:54:21.466Z,23.80
2022-08-27T14:56:48.450Z,23.80
2022-08-27T14:59:15.419Z,23.80
2022-08-27T15:01:42.346Z,23.70
2022-08-27T15:04:09.721Z,23.70
2022-08-27T15:06:36.526Z,23.60
2022-08-27T15:09:04.902Z,23.50
2022-08-27T15:11:33.913Z,23.50
2022-08-27T15:14:01.769Z,23.40
2022-08-27T15:16:28.874Z,23.40
2022-08-27T15:19:00.867Z,23.40
2022-08-27T15:21:29.392Z,23.30
2022-08-27T15:23:58.926Z,23.30
2022-08-27T15:26:25.923Z,23.30
2022-08-27T15:28:52.718Z,23.30
2022-08-27T15:31:19.972Z,23.30
2022-08-27T15:33:46.998Z,23.30
2022-08-27T15:36:13.920Z,23.30
2022-08-27T15:38:40.723Z,23.30
2022-08-27T15:41:10.271Z,23.40
2022-08-27T15:43:37.656Z,23.40
2022-08-27T15:46:05.142Z,23.30
2022-08-27T15:48:32.159Z,23.30
2022-08-27T15:51:05.865Z,23.20
2022-08-27T15:53:33.223Z,23.10
2022-08-27T15:56:00.638Z,23.10
2022-08-27T15:58:29.016Z,23.00
2022-08-27T16:01:03.485Z,23.00
2022-08-27T16:03:35.750Z,23.00
2022-08-27T16:06:04.760Z,23.00
2022-08-27T16:08:36.688Z,23.00
2022-08-27T16:11:08.589Z,22.90
2022-08-27T16:13:35.358Z,22.90
2022-08-27T16:16:02.743Z,22.80
2022-08-27T16:18:31.044Z,22.70
2022-08-27T16:20:58.462Z,22.70
2022-08-27T16:23:28.882Z,22.60
2022-08-27T16:25:56.477Z,22.60
2022-08-27T16:28:23.663Z,22.60
2022-08-27T16:30:51.581Z,22.60
2022-08-27T16:33:18.526Z,22.60
2022-08-27T16:35:45.477Z,22.70
2022-08-27T16:38:12.874Z,22.70
2022-08-27T16:40:43.997Z,22.70
2022-08-27T16:43:16.011Z,22.80
2022-08-27T16:45:42.751Z,22.70
2022-08-27T16:48:28.443Z,22.70
2022-08-27T16:50:55.620Z,22.70
2022-08-27T16:53:22.510Z,22.60
2022-08-27T16:55:50.251Z,22.60
2022-08-27T16:58:24.115Z,22.60
2022-08-27T17:00:52.537Z,22.60
2022-08-27T17:03:20.507Z,22.60
2022-08-27T17:05:47.591Z,22.60
2022-08-27T17:08:20.229Z,22.60
2022-08-27T17:10:49.024Z,22.50
2022-08-27T17:13:17.739Z,22.40
2022-08-27T17:15:44.698Z,22.40
2022-08-27T17:18:11.745Z,22.40
2022-08-27T17:20:38.645Z,22.30
2022-08-27T17:23:05.863Z,22.20
2022-08-27T17:25:32.656Z,22.30
2022-08-27T17:28:00.333Z,22.20
2022-08-27T17:30:27.548Z,22.20
2022-08-27T17:32:54.452Z,22.20
2022-08-27T17:35:21.282Z,22.10
2022-08-27T17:37:48.409Z,22.10
2022-08-27T17:40:15.269Z,22.10
2022-08-27T17:42:42.084Z,22.10
2022-08-27T17:45:10.584Z,22.10
2022-08-27T17:47:37.391Z,22.10
2022-08-27T17:50:04.913Z,22.10
2022-08-27T17:52:32.629Z,22.00
2022-08-27T17:54:59.920Z,22.00
2022-08-27T17:57:28.128Z,22.10
2022-08-27T17:59:55.311Z,22.00
2022-08-27T18:02:28.346Z,22.10
2022-08-27T18:04:55.503Z,22.00
2022-08-27T18:07:22.729Z,22.00
2022-08-27T18:09:49.947Z,21.90
2022-08-27T18:12:19.750Z,21.90
2022-08-27T18:14:48.562Z,21.90
2022-08-27T18:17:15.382Z,22.00
2022-08-27T18:19:45.728Z,22.00
2022-08-27T18:22:12.723Z,22.00
2022-08-27T18:24:39.571Z,22.00
2022-08-27T18:27:06.479Z,22.10
2022-08-27T18:29:33.369Z,22.00
2022-08-27T18:32:00.203Z,22.00
2022-08-27T18:34:27.903Z,22.10
2022-08-27T18:36:54.732Z,22.10
2022-08-27T18:39:21.574Z,22.00
2022-08-27T18:41:52.935Z,22.00
2022-08-27T18:44:19.798Z,21.90
2022-08-27T18:46:46.659Z,22.00
2022-08-27T18:49:13.562Z,22.00
2022-08-27T18:51:42.749Z,21.90
2022-08-27T18:54:09.684Z,22.00
2022-08-27T18:56:36.514Z,22.00
2022-08-27T18:59:04.329Z,22.00
2022-08-27T19:01:31.967Z,21.90
2022-08-27T19:03:58.947Z,21.90
2022-08-27T19:06:25.721Z,22.00
2022-08-27T19:08:52.726Z,21.90
2022-08-27T19:11:19.561Z,21.90
2022-08-27T19:13:50.452Z,21.90
2022-08-27T19:16:41.253Z,21.90
2022-08-27T19:19:08.591Z,21.90
2022-08-27T19:21:35.637Z,21.80
2022-08-27T19:24:04.297Z,21.80
2022-08-27T19:26:31.381Z,21.70
2022-08-27T19:28:58.194Z,21.50
2022-08-27T19:31:25.192Z,21.40
2022-08-27T19:33:52.297Z,21.40
2022-08-27T19:36:20.628Z,21.30
2022-08-27T19:38:49.205Z,21.20
2022-08-27T19:41:17.239Z,21.10
2022-08-27T19:43:45.821Z,21.10
2022-08-27T19:46:13.379Z,21.10
2022-08-27T19:48:43.948Z,21.10
2022-08-27T19:51:10.911Z,21.10
2022-08-27T19:53:38.375Z,21.10
2022-08-27T19:56:06.068Z,21.20
2022-08-27T19:58:32.913Z,21.20
2022-08-27T20:01:00.044Z,21.20
2022-08-27T20:03:27.830Z,21.20
2022-08-27T20:05:54.747Z,21.20
2022-08-27T20:08:21.537Z,21.20
2022-08-27T20:10:48.360Z,21.20
2022-08-27T20:13:15.122Z,21.20
2022-08-27T20:15:42.129Z,21.10
2022-08-27T20:18:09.532Z,21.00
2022-08-27T20:20:36.292Z,21.10
2022-08-27T20:23:03.900Z,21.00
2022-08-27T20:25:31.017Z,21.00
2022-08-27T20:27:57.791Z,20.90
2022-08-27T20:30:26.300Z,20.90
2022-08-27T20:32:53.250Z,20.90
2022-08-27T20:35:21.622Z,20.90
2022-08-27T20:37:48.455Z,20.90
2022-08-27T20:40:19.008Z,20.80
2022-08-27T20:42:45.855Z,20.80
2022-08-27T20:45:13.668Z,20.70
2022-08-27T20:47:42.102Z,20.70
2022-08-27T20:50:09.301Z,20.70
2022-08-27T20:52:39.145Z,20.60
2022-08-27T20:55:06.826Z,20.70
2022-08-27T20:57:33.629Z,20.60
2022-08-27T21:00:19.961Z,20.50
2022-08-27T21:02:47.902Z,20.60
2022-08-27T21:05:15.673Z,20.60
2022-08-27T21:07:42.639Z,20.60
2022-08-27T21:10:09.543Z,20.60
2022-08-27T21:12:36.461Z,20.50
2022-08-27T21:15:05.013Z,20.50
2022-08-27T21:17:31.834Z,20.50
2022-08-27T21:19:58.826Z,20.50
2022-08-27T21:22:25.992Z,20.60
2022-08-27T21:24:52.879Z,20.60
2022-08-27T21:27:21.231Z,20.50
2022-08-27T21:29:48.493Z,20.50
2022-08-27T21:32:15.513Z,20.50
2022-08-27T21:34:42.673Z,20.40
2022-08-27T21:37:11.523Z,20.40
2022-08-27T21:39:39.708Z,20.40
2022-08-27T21:42:06.693Z,20.40
2022-08-27T21:44:34.345Z,20.40
2022-08-27T21:47:01.905Z,20.40
2022-08-27T21:49:28.984Z,20.50
2022-08-27T21:51:55.828Z,20.40
2022-08-27T21:54:23.472Z,20.50
2022-08-27T21:56:54.939Z,20.50
2022-08-27T21:59:22.038Z,20.50
2022-08-27T22:01:55.810Z,20.50
2022-08-27T22:04:30.909Z,20.60
2022-08-27T22:06:58.897Z,20.60
2022-08-27T22:09:26.331Z,20.60
2022-08-27T22:11:53.498Z,20.60
2022-08-27T22:14:20.316Z,20.60
2022-08-27T22:16:47.318Z,20.50
2022-08-27T22:19:14.230Z,20.60
2022-08-27T22:21:41.379Z,20.60
2022-08-27T22:24:08.664Z,20.60
2022-08-27T22:26:35.577Z,20.70
2022-08-27T22:29:03.846Z,20.70
2022-08-27T22:31:32.640Z,20.60
2022-08-27T22:34:00.454Z,20.60
2022-08-27T22:36:27.722Z,20.60
2022-08-27T22:38:54.749Z,20.70
2022-08-27T22:41:26.812Z,20.60
2022-08-27T22:43:56.802Z,20.70
2022-08-27T22:46:24.840Z,20.60
2022-08-27T22:48:51.698Z,20.60
2022-08-27T22:51:18.501Z,20.60
2022-08-27T22:53:46.282Z,20.50
2022-08-27T22:56:13.382Z,20.40
2022-08-27T22:58:46.031Z,20.30
2022-08-27T23:01:13.958Z,20.20
2022-08-27T23:03:40.854Z,20.20
2022-08-27T23:06:07.784Z,20.20
2022-08-27T23:08:34.657Z,20.20
2022-08-27T23:11:03.192Z,20.10
2022-08-27T23:13:31.603Z,20.10
2022-08-27T23:15:59.324Z,20.00
2022-08-27T23:18:26.291Z,20.10
2022-08-27T23:20:53.252Z,20.00
2022-08-27T23:23:20.292Z,20.00
2022-08-27T23:26:05.894Z,19.90
2022-08-27T23:28:32.929Z,19.90
2022-08-27T23:30:59.962Z,19.90
2022-08-27T23:33:27.482Z,19.80
2022-08-27T23:35:54.324Z,19.80
2022-08-27T23:38:21.536Z,19.80
2022-08-27T23:40:49.575Z,19.80
2022-08-27T23:43:17.378Z,19.90
2022-08-27T23:45:44.252Z,19.90
2022-08-27T23:48:11.870Z,19.80
2022-08-27T23:50:39.528Z,19.80
2022-08-27T23:53:07.520Z,19.70
2022-08-27T23:55:34.763Z,19.70
2022-08-27T23:58:01.678Z,19.60
